Time;durP1;ratioP1;P1;durP2;ratioP2;P2;SDS_P1;SDS_P2;PMS_P1;PMS_P2;Temp;Humidity;BMP_temperature;BMP_pressure;BME280_temperature;BME280_humidity;BME280_pressure;Samples;Min_cycle;Max_cycle;Signal;HPM_P1;HPM_P2
2023/05/31 00:01:58;;;;;;;7.50;3.03;;;;;;;;;;5119105;27;20031;-61
2023/05/31 00:04:25;;;;;;;6.07;3.55;;;;;;;;;;5130418;27;20514;-62
2023/05/31 00:06:52;;;;;;;6.22;3.13;;;;;;;;;;5121936;27;20076;-61
2023/05/31 00:09:19;;;;;;;6.25;4.30;;;;;;;;;;5114491;28;20019;-63
2023/05/31 00:11:46;;;;;;;4.32;3.42;;;;;;;;;;5096287;28;20023;-63
2023/05/31 00:14:12;;;;;;;5.75;3.60;;;;;;;;;;5114598;28;20026;-64
2023/05/31 00:16:39;;;;;;;8.05;4.72;;;;;;;;;;5115829;28;20089;-63
2023/05/31 00:19:06;;;;;;;8.07;3.88;;;;;;;;;;5114228;28;20370;-63
2023/05/31 00:21:33;;;;;;;9.18;4.10;;;;;;;;;;5111126;28;20028;-64
2023/05/31 00:23:59;;;;;;;3.80;3.00;;;;;;;;;;5114126;27;20074;-64
2023/05/31 00:26:26;;;;;;;4.20;2.97;;;;;;;;;;5131718;27;20496;-63
2023/05/31 00:28:53;;;;;;;8.25;3.28;;;;;;;;;;5132025;27;20029;-64
2023/05/31 00:31:20;;;;;;;7.50;3.53;;;;;;;;;;5136598;27;20027;-63
2023/05/31 00:33:47;;;;;;;3.17;2.42;;;;;;;;;;5135725;27;20434;-63
2023/05/31 00:36:13;;;;;;;28.02;3.20;;;;;;;;;;5104199;28;20387;-63
2023/05/31 00:38:41;;;;;;;3.83;2.83;;;;;;;;;;5095019;28;20382;-63
2023/05/31 00:41:10;;;;;;;4.78;2.97;;;;;;;;;;5094816;28;20020;-63
2023/05/31 00:43:36;;;;;;;9.93;2.70;;;;;;;;;;5090335;28;20434;-64
2023/05/31 00:46:03;;;;;;;4.88;2.28;;;;;;;;;;5094941;27;20027;-63
2023/05/31 00:48:30;;;;;;;3.85;2.92;;;;;;;;;;5110741;28;20497;-61
2023/05/31 00:50:57;;;;;;;6.03;3.17;;;;;;;;;;5110600;28;20024;-61
2023/05/31 00:53:24;;;;;;;4.87;3.10;;;;;;;;;;5114984;28;20015;-61
2023/05/31 00:55:52;;;;;;;5.85;3.20;;;;;;;;;;5115529;28;20107;-61
2023/05/31 00:58:19;;;;;;;7.87;4.10;;;;;;;;;;5121311;27;20058;-60
2023/05/31 01:00:46;;;;;;;4.73;3.30;;;;;;;;;;5135923;27;20023;-62
2023/05/31 01:03:13;;;;;;;24.00;3.57;;;;;;;;;;5135717;27;20027;-60
2023/05/31 01:05:41;;;;;;;6.60;3.40;;;;;;;;;;5131265;27;20121;-62
2023/05/31 01:08:14;;;;;;;5.37;3.37;;;;;;;;;;5110003;28;20092;-60
2023/05/31 01:10:42;;;;;;;6.87;3.30;;;;;;;;;;5110107;27;20074;-62
2023/05/31 01:13:30;;;;;;;4.83;3.47;;;;;;;;;;5109600;28;20051;-61
2023/05/31 01:16:07;;;;;;;12.23;3.30;;;;;;;;;;5114832;28;20055;-60
2023/05/31 01:18:44;;;;;;;5.50;2.27;;;;;;;;;;5115206;28;20023;-60
2023/05/31 01:21:13;;;;;;;12.13;3.60;;;;;;;;;;5114963;27;20057;-61
2023/05/31 01:23:58;;;;;;;13.30;3.20;;;;;;;;;;5135077;27;20023;-61
2023/05/31 01:26:36;;;;;;;8.57;3.63;;;;;;;;;;5134258;27;20031;-60
2023/05/31 01:29:08;;;;;;;16.77;2.57;;;;;;;;;;5130253;27;20031;-60
2023/05/31 01:31:35;;;;;;;4.10;2.77;;;;;;;;;;5130540;27;20106;-61
2023/05/31 01:34:04;;;;;;;5.43;2.53;;;;;;;;;;5104646;28;20035;-60
2023/05/31 01:36:32;;;;;;;5.73;3.07;;;;;;;;;;5096332;28;20483;-61
2023/05/31 01:38:59;;;;;;;4.47;3.00;;;;;;;;;;5094371;28;20428;-61
2023/05/31 01:41:31;;;;;;;4.70;3.37;;;;;;;;;;5075967;28;20070;-61
2023/05/31 01:43:59;;;;;;;3.70;2.73;;;;;;;;;;5094126;28;20436;-61
2023/05/31 01:46:26;;;;;;;3.50;2.70;;;;;;;;;;5105318;27;20027;-61
2023/05/31 01:48:53;;;;;;;5.50;3.07;;;;;;;;;;5113713;28;20024;-61
2023/05/31 01:51:24;;;;;;;3.50;2.60;;;;;;;;;;5109112;28;20106;-61
2023/05/31 01:53:51;;;;;;;7.20;2.80;;;;;;;;;;5091029;28;20040;-62
2023/05/31 01:56:18;;;;;;;4.43;2.77;;;;;;;;;;5114406;27;20141;-61
2023/05/31 01:58:48;;;;;;;4.43;2.97;;;;;;;;;;5129894;27;20102;-60
2023/05/31 02:01:19;;;;;;;3.63;2.80;;;;;;;;;;5134716;27;20087;-60
2023/05/31 02:03:46;;;;;;;4.13;2.93;;;;;;;;;;5134592;27;20068;-60
2023/05/31 02:06:13;;;;;;;4.00;2.77;;;;;;;;;;5129836;27;20410;-60
2023/05/31 02:08:42;;;;;;;4.83;2.60;;;;;;;;;;5114312;27;20019;-60
2023/05/31 02:11:10;;;;;;;4.90;2.63;;;;;;;;;;5113661;28;20019;-60
2023/05/31 02:13:36;;;;;;;3.60;2.50;;;;;;;;;;5109139;28;20028;-60
2023/05/31 02:16:03;;;;;;;5.73;3.57;;;;;;;;;;5109008;28;20106;-60
2023/05/31 02:18:30;;;;;;;6.23;3.20;;;;;;;;;;5109032;28;20024;-59
2023/05/31 02:20:57;;;;;;;12.77;3.03;;;;;;;;;;5114693;27;20401;-59
2023/05/31 02:23:24;;;;;;;5.60;3.70;;;;;;;;;;5133805;27;20022;-59
2023/05/31 02:25:51;;;;;;;5.73;2.90;;;;;;;;;;5114566;27;20122;-60
2023/05/31 02:28:18;;;;;;;5.33;3.47;;;;;;;;;;5134390;27;20027;-59
2023/05/31 02:30:57;;;;;;;8.33;3.30;;;;;;;;;;5134181;27;20051;-59
2023/05/31 02:33:24;;;;;;;4.13;2.87;;;;;;;;;;5122708;27;20031;-59
2023/05/31 02:35:52;;;;;;;6.60;3.43;;;;;;;;;;5100548;28;20553;-59
2023/05/31 02:38:19;;;;;;;5.83;3.03;;;;;;;;;;5088193;28;20475;-59
2023/05/31 02:40:46;;;;;;;6.17;3.87;;;;;;;;;;5087731;28;20020;-60
2023/05/31 02:43:13;;;;;;;6.97;3.43;;;;;;;;;;5088719;28;20032;-59
2023/05/31 02:45:40;;;;;;;6.73;3.53;;;;;;;;;;5132497;27;20039;-60
2023/05/31 02:48:07;;;;;;;5.40;3.00;;;;;;;;;;5096014;28;20038;-59
2023/05/31 02:50:33;;;;;;;10.77;3.87;;;;;;;;;;5092984;28;20439;-60
2023/05/31 02:53:03;;;;;;;21.13;3.23;;;;;;;;;;5092937;28;20020;-59
2023/05/31 02:55:31;;;;;;;4.93;3.60;;;;;;;;;;5092372;28;20032;-59
2023/05/31 02:57:58;;;;;;;5.33;3.40;;;;;;;;;;5107175;27;20038;-60
2023/05/31 03:00:25;;;;;;;4.13;3.07;;;;;;;;;;5107793;28;20076;-60
2023/05/31 03:02:53;;;;;;;4.60;3.70;;;;;;;;;;5108168;28;20030;-59
2023/05/31 03:05:20;;;;;;;4.63;3.10;;;;;;;;;;5108351;28;20449;-60
2023/05/31 03:07:47;;;;;;;5.20;2.97;;;;;;;;;;5110757;28;20063;-60
2023/05/31 03:10:14;;;;;;;4.23;3.00;;;;;;;;;;5092700;28;20415;-60
2023/05/31 03:12:41;;;;;;;5.77;3.30;;;;;;;;;;5092798;28;20428;-60
2023/05/31 03:15:08;;;;;;;3.67;2.93;;;;;;;;;;5092509;28;20059;-60
2023/05/31 03:17:37;;;;;;;4.20;2.77;;;;;;;;;;5092089;28;20020;-60
2023/05/31 03:20:06;;;;;;;4.63;3.03;;;;;;;;;;5091360;27;20105;-59
2023/05/31 03:22:33;;;;;;;4.40;3.07;;;;;;;;;;5128369;27;20031;-59
2023/05/31 03:25:00;;;;;;;5.13;2.67;;;;;;;;;;5128313;27;20099;-60
2023/05/31 03:27:27;;;;;;;4.50;3.20;;;;;;;;;;5128451;27;20115;-60
2023/05/31 03:29:54;;;;;;;2.63;1.97;;;;;;;;;;5130647;27;20028;-60
2023/05/31 03:32:20;;;;;;;7.93;3.10;;;;;;;;;;5128258;28;20374;-59
2023/05/31 03:34:47;;;;;;;7.93;3.07;;;;;;;;;;5112466;28;20420;-60
2023/05/31 03:37:14;;;;;;;2.90;2.13;;;;;;;;;;5092669;28;20509;-60
2023/05/31 03:39:41;;;;;;;8.27;3.27;;;;;;;;;;5099416;28;20031;-59
2023/05/31 03:42:08;;;;;;;12.13;3.47;;;;;;;;;;5118921;28;20030;-59
2023/05/31 03:44:35;;;;;;;4.40;3.20;;;;;;;;;;5107606;28;20114;-60
2023/05/31 03:47:02;;;;;;;3.80;2.73;;;;;;;;;;5099222;28;20028;-60
2023/05/31 03:49:28;;;;;;;4.60;3.40;;;;;;;;;;5087424;28;20157;-59
2023/05/31 03:51:55;;;;;;;3.40;2.40;;;;;;;;;;5094644;28;20027;-59
2023/05/31 03:54:22;;;;;;;4.30;3.03;;;;;;;;;;5112074;28;20024;-59
2023/05/31 03:56:49;;;;;;;4.60;3.50;;;;;;;;;;5112397;28;20035;-59
2023/05/31 03:59:15;;;;;;;11.47;3.40;;;;;;;;;;5112414;28;20042;-59
2023/05/31 04:01:43;;;;;;;3.50;2.40;;;;;;;;;;5114395;28;20466;-59
2023/05/31 04:04:10;;;;;;;3.70;3.00;;;;;;;;;;5130805;28;20043;-59
2023/05/31 04:06:37;;;;;;;6.23;3.20;;;;;;;;;;5118314;28;20355;-59
2023/05/31 04:09:06;;;;;;;4.50;3.07;;;;;;;;;;5089228;28;20110;-59
2023/05/31 04:11:33;;;;;;;11.37;3.17;;;;;;;;;;5107561;28;20031;-59
2023/05/31 04:14:00;;;;;;;6.27;3.40;;;;;;;;;;5107895;28;20198;-59
2023/05/31 04:16:27;;;;;;;5.40;3.20;;;;;;;;;;5112015;28;20106;-59
2023/05/31 04:18:54;;;;;;;3.97;3.30;;;;;;;;;;5112226;28;20474;-59
2023/05/31 04:21:20;;;;;;;5.90;3.70;;;;;;;;;;5120126;28;20027;-59
2023/05/31 04:23:47;;;;;;;3.70;2.80;;;;;;;;;;5132790;28;20043;-59
2023/05/31 04:26:16;;;;;;;10.50;3.43;;;;;;;;;;5131875;28;20030;-59
2023/05/31 04:28:51;;;;;;;4.30;3.17;;;;;;;;;;5127676;28;20028;-60
2023/05/31 04:31:18;;;;;;;13.90;3.83;;;;;;;;;;5127637;28;20106;-61
2023/05/31 04:33:45;;;;;;;4.13;2.87;;;;;;;;;;5115784;28;20429;-60
2023/05/31 04:36:12;;;;;;;4.20;3.20;;;;;;;;;;5096402;28;20028;-60
2023/05/31 04:38:39;;;;;;;4.20;3.10;;;;;;;;;;5091460;28;20016;-60
2023/05/31 04:41:06;;;;;;;4.50;3.00;;;;;;;;;;5091787;28;20044;-61
2023/05/31 04:43:33;;;;;;;7.03;3.20;;;;;;;;;;5110183;28;20023;-61
2023/05/31 04:46:00;;;;;;;4.30;2.83;;;;;;;;;;5121413;28;20030;-61
2023/05/31 04:48:28;;;;;;;6.03;3.20;;;;;;;;;;5092468;28;20024;-61
2023/05/31 04:50:55;;;;;;;5.83;3.53;;;;;;;;;;5089902;28;20020;-61
2023/05/31 04:53:23;;;;;;;4.57;3.23;;;;;;;;;;5090058;28;20031;-61
2023/05/31 04:55:51;;;;;;;6.13;3.63;;;;;;;;;;5117585;27;20034;-61
2023/05/31 04:58:19;;;;;;;22.87;4.30;;;;;;;;;;5130497;27;20044;-61
2023/05/31 05:00:46;;;;;;;10.97;4.23;;;;;;;;;;5129291;27;20469;-61
2023/05/31 05:03:13;;;;;;;7.63;3.67;;;;;;;;;;5115351;28;20059;-60
2023/05/31 05:05:40;;;;;;;5.07;3.83;;;;;;;;;;5114796;28;20039;-61
2023/05/31 05:08:07;;;;;;;4.53;3.50;;;;;;;;;;5129943;27;20075;-60
2023/05/31 05:10:34;;;;;;;10.67;3.43;;;;;;;;;;5135814;27;20027;-61
2023/05/31 05:13:01;;;;;;;7.03;4.23;;;;;;;;;;5130279;27;20027;-60
2023/05/31 05:15:27;;;;;;;17.97;4.23;;;;;;;;;;5130404;27;20469;-61
2023/05/31 05:17:54;;;;;;;4.60;3.17;;;;;;;;;;5130297;27;20457;-61
2023/05/31 05:20:21;;;;;;;4.37;3.57;;;;;;;;;;5113105;27;20034;-60
2023/05/31 05:22:53;;;;;;;8.17;4.07;;;;;;;;;;5113240;28;20027;-61
2023/05/31 05:25:21;;;;;;;8.37;4.60;;;;;;;;;;5114793;28;20466;-60
2023/05/31 05:27:48;;;;;;;6.70;4.63;;;;;;;;;;5114862;28;20028;-61
2023/05/31 05:30:16;;;;;;;8.47;4.03;;;;;;;;;;5114699;28;20106;-60
2023/05/31 05:32:42;;;;;;;6.97;4.53;;;;;;;;;;5134331;27;20035;-60
2023/05/31 05:35:09;;;;;;;4.67;3.53;;;;;;;;;;5129651;27;20026;-60
2023/05/31 05:37:36;;;;;;;8.83;3.60;;;;;;;;;;5128248;27;20066;-61
2023/05/31 05:40:04;;;;;;;5.90;3.70;;;;;;;;;;5111417;27;20032;-61
2023/05/31 05:42:36;;;;;;;5.17;3.10;;;;;;;;;;5107879;28;20024;-61
2023/05/31 05:45:04;;;;;;;7.43;4.97;;;;;;;;;;5111122;28;20028;-60
2023/05/31 05:47:31;;;;;;;6.27;4.33;;;;;;;;;;5081878;28;20093;-61
2023/05/31 05:49:58;;;;;;;6.60;3.80;;;;;;;;;;5107879;27;20031;-60
2023/05/31 05:52:25;;;;;;;4.97;3.87;;;;;;;;;;5113002;28;20379;-60
2023/05/31 05:54:51;;;;;;;7.13;4.10;;;;;;;;;;5113759;28;20093;-60
2023/05/31 05:57:19;;;;;;;5.40;3.93;;;;;;;;;;5110291;28;20054;-60
2023/05/31 05:59:46;;;;;;;4.20;3.27;;;;;;;;;;5108901;28;20051;-61
2023/05/31 06:02:12;;;;;;;27.17;4.23;;;;;;;;;;5128277;27;20492;-60
2023/05/31 06:04:40;;;;;;;6.67;4.57;;;;;;;;;;5129098;27;20530;-61
2023/05/31 06:07:07;;;;;;;4.30;2.57;;;;;;;;;;5132400;27;20388;-60
2023/05/31 06:09:33;;;;;;;12.30;3.33;;;;;;;;;;5134640;27;20027;-60
2023/05/31 06:12:01;;;;;;;5.50;2.97;;;;;;;;;;5134313;27;20075;-61
2023/05/31 06:14:28;;;;;;;4.73;3.57;;;;;;;;;;5114867;27;20031;-60
2023/05/31 06:16:55;;;;;;;4.87;3.90;;;;;;;;;;5113985;28;20020;-60
2023/05/31 06:19:22;;;;;;;5.27;4.27;;;;;;;;;;5110750;28;20115;-60
2023/05/31 06:21:49;;;;;;;6.07;4.43;;;;;;;;;;5108376;28;20072;-61
2023/05/31 06:24:16;;;;;;;5.67;3.83;;;;;;;;;;5108568;28;20081;-61
2023/05/31 06:26:43;;;;;;;6.07;4.30;;;;;;;;;;5127640;27;20069;-61
2023/05/31 06:29:10;;;;;;;5.40;4.20;;;;;;;;;;5131272;27;20111;-60
2023/05/31 06:31:38;;;;;;;4.57;3.43;;;;;;;;;;5133674;27;20024;-60
2023/05/31 06:34:06;;;;;;;3.30;2.73;;;;;;;;;;5133963;27;20462;-60
2023/05/31 06:36:32;;;;;;;5.30;3.97;;;;;;;;;;5133512;27;20051;-61
2023/05/31 06:38:59;;;;;;;9.23;4.10;;;;;;;;;;5109541;27;20023;-61
2023/05/31 06:41:27;;;;;;;5.37;3.80;;;;;;;;;;5110995;28;20047;-61
2023/05/31 06:43:54;;;;;;;5.10;3.70;;;;;;;;;;5107922;28;20056;-61
2023/05/31 06:46:21;;;;;;;4.77;3.50;;;;;;;;;;5104040;28;20028;-60
2023/05/31 06:48:47;;;;;;;7.53;4.37;;;;;;;;;;5090026;27;20024;-60
2023/05/31 06:51:16;;;;;;;6.57;3.97;;;;;;;;;;5107984;28;20026;-60
2023/05/31 06:53:42;;;;;;;4.80;3.63;;;;;;;;;;5111331;28;20030;-60
2023/05/31 06:56:09;;;;;;;5.67;4.50;;;;;;;;;;5111048;28;20023;-61
2023/05/31 06:58:36;;;;;;;6.17;4.53;;;;;;;;;;5111340;28;20486;-60
2023/05/31 07:01:03;;;;;;;6.60;3.77;;;;;;;;;;5114185;27;20015;-60
2023/05/31 07:03:29;;;;;;;6.80;4.00;;;;;;;;;;5130601;27;20051;-60
2023/05/31 07:05:56;;;;;;;6.00;3.37;;;;;;;;;;5127734;27;20036;-60
2023/05/31 07:08:23;;;;;;;4.97;3.70;;;;;;;;;;5128371;27;20025;-60
2023/05/31 07:10:50;;;;;;;6.67;3.77;;;;;;;;;;5127683;27;20056;-60
2023/05/31 07:13:17;;;;;;;4.00;2.87;;;;;;;;;;5122415;27;20024;-60
2023/05/31 07:15:44;;;;;;;6.43;4.77;;;;;;;;;;5112604;28;20031;-61
2023/05/31 07:18:10;;;;;;;6.90;4.70;;;;;;;;;;5112778;28;20023;-61
2023/05/31 07:20:37;;;;;;;8.93;5.97;;;;;;;;;;5112799;28;20020;-60
2023/05/31 07:23:04;;;;;;;6.20;4.57;;;;;;;;;;5115117;27;20027;-61
2023/05/31 07:25:31;;;;;;;8.77;4.93;;;;;;;;;;5132184;27;20060;-60
2023/05/31 07:27:58;;;;;;;6.83;5.00;;;;;;;;;;5126602;27;20039;-60
2023/05/31 07:30:25;;;;;;;11.87;5.97;;;;;;;;;;5126307;27;20034;-61
2023/05/31 07:32:52;;;;;;;11.03;6.40;;;;;;;;;;5126334;27;20106;-60
2023/05/31 07:35:19;;;;;;;5.10;3.47;;;;;;;;;;5122528;28;20019;-61
2023/05/31 07:37:46;;;;;;;6.50;4.80;;;;;;;;;;5110816;28;20024;-61
2023/05/31 07:40:15;;;;;;;7.87;5.60;;;;;;;;;;5110674;28;20485;-61
2023/05/31 07:42:43;;;;;;;6.73;4.83;;;;;;;;;;5110819;28;20441;-60
2023/05/31 07:45:10;;;;;;;14.57;6.00;;;;;;;;;;5111541;28;20047;-60
2023/05/31 07:47:37;;;;;;;9.73;5.47;;;;;;;;;;5103149;28;20020;-60
2023/05/31 07:50:04;;;;;;;8.87;5.20;;;;;;;;;;5107129;28;20497;-60
2023/05/31 07:52:31;;;;;;;7.70;4.73;;;;;;;;;;5107038;28;20494;-61
2023/05/31 07:54:58;;;;;;;8.07;5.47;;;;;;;;;;5108342;28;20759;-60
2023/05/31 07:57:24;;;;;;;8.87;5.50;;;;;;;;;;5127249;28;20062;-60
2023/05/31 07:59:51;;;;;;;16.10;7.30;;;;;;;;;;5132267;28;20023;-60
2023/05/31 08:02:18;;;;;;;5.87;4.20;;;;;;;;;;5132789;28;20039;-60
2023/05/31 08:04:45;;;;;;;6.37;4.83;;;;;;;;;;5132535;28;20031;-60
2023/05/31 08:07:12;;;;;;;15.73;5.40;;;;;;;;;;5112280;28;20027;-60
2023/05/31 08:09:39;;;;;;;6.73;4.30;;;;;;;;;;5112024;28;20089;-60
2023/05/31 08:12:06;;;;;;;10.47;5.70;;;;;;;;;;5107534;28;20102;-60
2023/05/31 08:14:33;;;;;;;4.60;3.90;;;;;;;;;;5106804;28;20024;-61
2023/05/31 08:17:00;;;;;;;5.83;4.27;;;;;;;;;;5108947;28;20023;-60
2023/05/31 08:19:26;;;;;;;11.33;5.50;;;;;;;;;;5127383;28;20033;-61
2023/05/31 08:21:53;;;;;;;8.10;4.53;;;;;;;;;;5131059;27;20015;-60
2023/05/31 08:24:20;;;;;;;8.43;6.03;;;;;;;;;;5135999;27;20381;-60
2023/05/31 08:26:47;;;;;;;7.67;5.00;;;;;;;;;;5136624;27;20052;-60
2023/05/31 08:29:13;;;;;;;8.43;5.67;;;;;;;;;;5130735;27;20084;-60
2023/05/31 08:31:40;;;;;;;7.70;4.80;;;;;;;;;;5115819;28;20015;-61
2023/05/31 08:34:07;;;;;;;8.93;5.30;;;;;;;;;;5111602;28;20020;-60
2023/05/31 08:36:34;;;;;;;7.43;4.70;;;;;;;;;;5110711;28;20149;-60
2023/05/31 08:39:01;;;;;;;9.00;6.13;;;;;;;;;;5110452;28;20031;-60
2023/05/31 08:41:30;;;;;;;4.93;3.50;;;;;;;;;;5115042;27;20027;-60
2023/05/31 08:43:57;;;;;;;6.07;4.73;;;;;;;;;;5133986;27;20019;-61
2023/05/31 08:46:25;;;;;;;6.07;4.90;;;;;;;;;;5133230;27;20020;-60
2023/05/31 08:49:00;;;;;;;6.63;4.90;;;;;;;;;;5115619;28;20048;-61
2023/05/31 08:51:26;;;;;;;;;;;;;;;;;;5116003;28;20082;-60
2023/05/31 08:53:54;;;;;;;9.17;5.93;;;;;;;;;;5122773;27;19908;-60
2023/05/31 08:56:21;;;;;;;6.50;4.07;;;;;;;;;;5132285;27;20019;-60
2023/05/31 08:58:50;;;;;;;8.57;5.63;;;;;;;;;;5112254;27;20653;-60
2023/05/31 09:01:20;;;;;;;8.70;5.87;;;;;;;;;;5130439;27;20054;-61
2023/05/31 09:03:47;;;;;;;7.67;5.40;;;;;;;;;;5130316;27;20015;-60
2023/05/31 09:06:14;;;;;;;7.07;5.17;;;;;;;;;;5127655;27;20031;-60
2023/05/31 09:08:42;;;;;;;6.13;5.07;;;;;;;;;;5104612;27;20114;-61
2023/05/31 09:11:09;;;;;;;17.07;5.40;;;;;;;;;;5135384;27;20034;-60
2023/05/31 09:13:36;;;;;;;10.73;5.40;;;;;;;;;;5135513;27;20019;-60
2023/05/31 09:16:02;;;;;;;4.73;4.07;;;;;;;;;;5133513;27;20042;-60
2023/05/31 09:18:36;;;;;;;5.20;4.13;;;;;;;;;;5132167;27;20111;-60
2023/05/31 09:21:08;;;;;;;8.27;4.77;;;;;;;;;;5129950;27;20051;-60
2023/05/31 09:23:35;;;;;;;6.57;5.57;;;;;;;;;;5130293;27;20486;-60
2023/05/31 09:26:02;;;;;;;6.87;4.30;;;;;;;;;;5128319;27;20043;-60
2023/05/31 09:28:29;;;;;;;5.40;3.90;;;;;;;;;;5132515;27;20023;-61
2023/05/31 09:31:05;;;;;;;13.53;4.40;;;;;;;;;;5135225;27;20098;-60
2023/05/31 09:33:40;;;;;;;5.20;4.00;;;;;;;;;;5134382;27;20016;-60
2023/05/31 09:36:07;;;;;;;7.15;4.70;;;;;;;;;;5134711;27;20384;-62
2023/05/31 09:38:35;;;;;;;5.37;4.13;;;;;;;;;;5094065;28;20026;-60
2023/05/31 09:41:15;;;;;;;5.67;4.53;;;;;;;;;;5090814;28;20024;-60
2023/05/31 09:43:43;;;;;;;5.27;4.20;;;;;;;;;;5088705;28;20039;-60
2023/05/31 09:46:28;;;;;;;4.70;3.97;;;;;;;;;;5087985;28;20178;-60
2023/05/31 09:48:58;;;;;;;6.50;4.45;;;;;;;;;;5101902;27;20486;-60
2023/05/31 09:51:25;;;;;;;6.23;4.43;;;;;;;;;;5133797;27;20026;-60
2023/05/31 09:53:55;;;;;;;4.63;3.77;;;;;;;;;;5133311;27;20470;-60
2023/05/31 09:56:22;;;;;;;5.23;3.97;;;;;;;;;;5132967;27;20037;-60
2023/05/31 09:58:50;;;;;;;4.53;3.63;;;;;;;;;;5132697;27;20019;-60
2023/05/31 10:01:17;;;;;;;9.43;4.63;;;;;;;;;;5125157;27;20076;-60
2023/05/31 10:03:45;;;;;;;4.33;3.50;;;;;;;;;;5108020;28;20059;-60
2023/05/31 10:06:12;;;;;;;4.90;4.03;;;;;;;;;;5107412;28;20055;-60
2023/05/31 10:08:38;;;;;;;5.07;3.87;;;;;;;;;;5089072;28;20031;-60
2023/05/31 10:11:05;;;;;;;4.00;3.13;;;;;;;;;;5107443;28;20024;-60
2023/05/31 10:13:32;;;;;;;8.90;5.27;;;;;;;;;;5118173;27;20370;-60
2023/05/31 10:16:09;;;;;;;5.40;4.13;;;;;;;;;;5134325;27;20024;-60
2023/05/31 10:18:37;;;;;;;6.17;4.53;;;;;;;;;;5134305;27;20055;-60
2023/05/31 10:21:09;;;;;;;7.57;5.47;;;;;;;;;;5134228;27;20029;-60
2023/05/31 10:23:41;;;;;;;4.77;3.90;;;;;;;;;;5134319;27;20019;-60
2023/05/31 10:26:13;;;;;;;4.17;3.70;;;;;;;;;;5097653;28;20040;-60
2023/05/31 10:28:46;;;;;;;8.27;4.93;;;;;;;;;;5108425;28;20050;-60
2023/05/31 10:31:13;;;;;;;6.60;5.17;;;;;;;;;;5108305;28;20475;-60
2023/05/31 10:33:44;;;;;;;6.53;4.73;;;;;;;;;;5108302;28;20068;-60
2023/05/31 10:36:11;;;;;;;10.60;5.30;;;;;;;;;;5112320;28;20031;-60
2023/05/31 10:38:51;;;;;;;5.20;4.03;;;;;;;;;;5127618;27;20042;-60
2023/05/31 10:41:20;;;;;;;9.10;5.53;;;;;;;;;;5133949;27;20369;-60
2023/05/31 10:43:53;;;;;;;4.33;2.90;;;;;;;;;;5134020;27;20027;-60
2023/05/31 10:46:21;;;;;;;3.77;3.00;;;;;;;;;;5130658;27;20031;-60
2023/05/31 10:48:47;;;;;;;7.80;5.77;;;;;;;;;;5108355;28;20028;-60
2023/05/31 10:51:16;;;;;;;6.17;4.27;;;;;;;;;;5126736;27;20495;-60
2023/05/31 10:53:47;;;;;;;5.67;4.77;;;;;;;;;;5128555;27;20434;-60
2023/05/31 10:56:15;;;;;;;5.03;4.27;;;;;;;;;;5126770;27;20046;-60
2023/05/31 10:59:02;;;;;;;5.97;4.63;;;;;;;;;;5130862;27;20511;-60
2023/05/31 11:01:29;;;;;;;4.93;4.27;;;;;;;;;;5128269;27;20039;-60
2023/05/31 11:04:01;;;;;;;8.50;5.13;;;;;;;;;;5110596;28;20028;-60
2023/05/31 11:06:28;;;;;;;8.10;6.23;;;;;;;;;;5111348;28;20084;-60
2023/05/31 11:08:58;;;;;;;8.30;5.07;;;;;;;;;;5111171;28;20031;-60
2023/05/31 11:11:29;;;;;;;6.23;4.73;;;;;;;;;;5106037;28;20111;-60
2023/05/31 11:14:06;;;;;;;5.43;4.23;;;;;;;;;;5112191;27;20452;-60
2023/05/31 11:16:34;;;;;;;6.30;4.97;;;;;;;;;;5127751;27;20023;-60
2023/05/31 11:19:05;;;;;;;8.40;6.37;;;;;;;;;;5109723;27;20469;-60
2023/05/31 11:21:51;;;;;;;8.83;5.53;;;;;;;;;;5133303;27;20034;-60
2023/05/31 11:24:31;;;;;;;8.00;6.13;;;;;;;;;;5133197;27;20546;-60
2023/05/31 11:27:02;;;;;;;7.63;5.20;;;;;;;;;;5117733;27;20028;-60
2023/05/31 11:29:49;;;;;;;8.93;5.20;;;;;;;;;;5112626;28;20051;-60
2023/05/31 11:32:17;;;;;;;16.57;4.87;;;;;;;;;;5093393;28;20039;-60
2023/05/31 11:34:54;;;;;;;10.87;5.37;;;;;;;;;;5107105;28;20427;-60
2023/05/31 11:37:21;;;;;;;7.13;5.30;;;;;;;;;;5107258;28;20024;-60
2023/05/31 11:39:48;;;;;;;9.97;6.30;;;;;;;;;;5126895;28;20390;-60
2023/05/31 11:42:15;;;;;;;5.87;4.23;;;;;;;;;;5129453;28;20065;-60
2023/05/31 11:44:43;;;;;;;5.80;3.23;;;;;;;;;;5133012;28;20114;-60
2023/05/31 11:47:20;;;;;;;4.93;4.03;;;;;;;;;;5123845;28;20416;-60
2023/05/31 11:49:47;;;;;;;6.27;5.00;;;;;;;;;;5094563;28;20539;-60
2023/05/31 11:52:18;;;;;;;5.73;4.67;;;;;;;;;;5132890;28;20019;-60
2023/05/31 11:54:47;;;;;;;6.50;5.07;;;;;;;;;;5130452;28;20084;-60
2023/05/31 11:57:16;;;;;;;15.30;6.13;;;;;;;;;;5129054;27;20083;-60
2023/05/31 11:59:43;;;;;;;7.60;6.13;;;;;;;;;;5131881;27;20485;-60
2023/05/31 12:02:11;;;;;;;8.00;5.27;;;;;;;;;;5128313;27;20019;-60
2023/05/31 12:04:42;;;;;;;6.90;5.80;;;;;;;;;;5112469;28;20024;-60
2023/05/31 12:07:12;;;;;;;6.00;4.73;;;;;;;;;;5116384;28;20031;-60
2023/05/31 12:09:39;;;;;;;8.57;5.70;;;;;;;;;;5116505;28;20104;-60
2023/05/31 12:12:06;;;;;;;7.43;5.00;;;;;;;;;;5116223;28;20589;-60
2023/05/31 12:14:33;;;;;;;10.87;6.23;;;;;;;;;;5122166;27;20049;-60
2023/05/31 12:17:04;;;;;;;6.77;6.00;;;;;;;;;;5134099;27;20019;-60
2023/05/31 12:19:32;;;;;;;6.73;5.43;;;;;;;;;;5131234;27;20034;-60
2023/05/31 12:21:59;;;;;;;7.97;5.80;;;;;;;;;;5131332;27;20035;-60
2023/05/31 12:24:26;;;;;;;7.50;4.93;;;;;;;;;;5126900;27;20734;-60
2023/05/31 12:26:55;;;;;;;7.80;6.13;;;;;;;;;;5112417;28;20027;-60
2023/05/31 12:29:27;;;;;;;9.77;6.83;;;;;;;;;;5115988;28;20480;-60
2023/05/31 12:32:02;;;;;;;7.80;6.43;;;;;;;;;;5115994;28;20098;-60
2023/05/31 12:34:30;;;;;;;7.40;5.90;;;;;;;;;;5115700;28;20027;-60
2023/05/31 12:36:58;;;;;;;23.10;8.20;;;;;;;;;;5125887;27;20124;-60
2023/05/31 12:39:25;;;;;;;7.30;5.00;;;;;;;;;;5133514;27;20046;-61
2023/05/31 12:41:52;;;;;;;10.93;6.53;;;;;;;;;;5121415;27;20031;-60
2023/05/31 12:44:22;;;;;;;6.73;5.33;;;;;;;;;;5110159;28;20023;-60
2023/05/31 12:46:50;;;;;;;7.27;5.80;;;;;;;;;;5104019;28;20024;-60
2023/05/31 12:49:20;;;;;;;7.10;5.93;;;;;;;;;;5091297;28;20103;-60
2023/05/31 12:51:47;;;;;;;8.60;7.43;;;;;;;;;;5103279;27;20032;-60
2023/05/31 12:54:16;;;;;;;9.23;7.50;;;;;;;;;;5115452;28;20081;-60
2023/05/31 12:56:43;;;;;;;13.30;8.00;;;;;;;;;;5115365;28;20015;-60
2023/05/31 12:59:11;;;;;;;9.60;6.87;;;;;;;;;;5115355;28;20031;-60
2023/05/31 13:01:41;;;;;;;9.47;6.80;;;;;;;;;;5099749;27;20083;-61
2023/05/31 13:04:11;;;;;;;12.17;6.87;;;;;;;;;;5128549;27;20458;-60
2023/05/31 13:06:41;;;;;;;10.17;6.53;;;;;;;;;;5128977;27;20054;-60
2023/05/31 13:09:08;;;;;;;8.03;6.23;;;;;;;;;;5128367;27;20034;-60
2023/05/31 13:11:36;;;;;;;8.43;6.93;;;;;;;;;;5130491;27;20019;-61
2023/05/31 13:14:03;;;;;;;19.53;6.13;;;;;;;;;;5126128;27;20023;-60
2023/05/31 13:16:31;;;;;;;7.83;5.60;;;;;;;;;;5113259;28;20104;-60
2023/05/31 13:18:58;;;;;;;6.87;5.47;;;;;;;;;;5112896;28;20024;-61
2023/05/31 13:21:25;;;;;;;10.10;6.23;;;;;;;;;;5114485;28;20168;-60
2023/05/31 13:23:52;;;;;;;10.07;6.83;;;;;;;;;;5112919;28;20034;-61
2023/05/31 13:26:20;;;;;;;6.93;5.70;;;;;;;;;;5116460;27;20031;-60
2023/05/31 13:28:47;;;;;;;8.40;6.27;;;;;;;;;;5129809;27;20027;-60
2023/05/31 13:31:14;;;;;;;9.60;6.87;;;;;;;;;;5129670;27;20392;-61
2023/05/31 13:33:41;;;;;;;12.90;6.97;;;;;;;;;;5130982;27;20091;-60
2023/05/31 13:36:08;;;;;;;9.70;7.47;;;;;;;;;;5129917;27;20466;-61
2023/05/31 13:38:34;;;;;;;8.93;6.87;;;;;;;;;;5114603;28;20019;-60
2023/05/31 13:41:01;;;;;;;10.10;6.13;;;;;;;;;;5114574;28;20389;-60
2023/05/31 13:43:29;;;;;;;9.20;6.80;;;;;;;;;;5114578;28;20031;-60
2023/05/31 13:45:56;;;;;;;11.57;9.30;;;;;;;;;;5113348;28;20028;-61
2023/05/31 13:48:23;;;;;;;17.27;8.37;;;;;;;;;;5095896;27;20424;-60
2023/05/31 13:50:51;;;;;;;10.67;8.17;;;;;;;;;;5109112;28;20084;-60
2023/05/31 13:53:18;;;;;;;14.07;7.90;;;;;;;;;;5108790;28;20032;-61
2023/05/31 13:55:48;;;;;;;12.40;8.93;;;;;;;;;;5109332;28;20023;-60
2023/05/31 13:58:17;;;;;;;14.90;9.23;;;;;;;;;;5114244;28;20587;-59
2023/05/31 14:00:44;;;;;;;13.63;9.17;;;;;;;;;;5114346;28;20015;-61
2023/05/31 14:03:10;;;;;;;11.70;7.87;;;;;;;;;;5114590;28;20016;-60
2023/05/31 14:05:37;;;;;;;18.33;9.37;;;;;;;;;;5113944;28;20031;-60
2023/05/31 14:08:06;;;;;;;18.87;9.00;;;;;;;;;;5113463;28;20020;-60
2023/05/31 14:10:33;;;;;;;9.83;7.27;;;;;;;;;;5117062;27;20365;-60
2023/05/31 14:12:59;;;;;;;8.33;7.10;;;;;;;;;;5129508;27;20027;-61
2023/05/31 14:15:26;;;;;;;10.50;6.07;;;;;;;;;;5110869;27;20051;-61
2023/05/31 14:17:53;;;;;;;23.17;6.67;;;;;;;;;;5129332;27;20038;-61
2023/05/31 14:20:20;;;;;;;9.30;5.97;;;;;;;;;;5134662;27;20084;-60
2023/05/31 14:22:47;;;;;;;8.73;6.37;;;;;;;;;;5123948;27;20019;-61
2023/05/31 14:25:14;;;;;;;10.13;5.63;;;;;;;;;;5113357;28;20466;-61
2023/05/31 14:27:41;;;;;;;7.43;6.10;;;;;;;;;;5113904;28;20445;-61
2023/05/31 14:30:08;;;;;;;9.33;5.13;;;;;;;;;;5113794;28;20386;-60
2023/05/31 14:32:35;;;;;;;13.00;6.33;;;;;;;;;;5108613;28;20024;-61
2023/05/31 14:35:02;;;;;;;13.23;5.07;;;;;;;;;;5118674;27;20035;-61
2023/05/31 14:37:29;;;;;;;7.73;5.47;;;;;;;;;;5128744;27;20015;-60
2023/05/31 14:39:56;;;;;;;10.40;5.93;;;;;;;;;;5128091;27;20043;-61
2023/05/31 14:42:23;;;;;;;7.27;5.73;;;;;;;;;;5120300;27;20024;-61
2023/05/31 14:44:50;;;;;;;8.80;5.40;;;;;;;;;;5112912;28;20031;-61
2023/05/31 14:47:17;;;;;;;8.50;5.03;;;;;;;;;;5126963;27;20112;-61